Time,TemperatureF,DewpointF,PressureIn,WindDirection,WindDirectionDegrees,WindSpeedMPH,WindSpeedGustMPH,Humidity,HourlyPrecipIn,Conditions,Clouds,dailyrainin,SoftwareType,DateUTC
2013-11-16 00:02:00,27.7,24.3,29.73,WNW,294,2.0,4.0,87,0.00,,---,0.32,VWS V14.01,2013-11-16 07:02:00,
2013-11-16 00:07:00,27.6,24.2,29.73,WNW,283,5.0,5.0,87,0.00,,---,0.00,VWS V14.01,2013-11-16 07:07:00,
2013-11-16 00:12:00,27.5,24.1,29.73,WNW,282,6.0,6.0,87,0.00,,---,0.00,VWS V14.01,2013-11-16 07:12:00,
2013-11-16 00:17:00,27.3,24.0,29.72,NW,306,5.0,5.0,87,0.00,,---,0.00,VWS V14.01,2013-11-16 07:17:00,
2013-11-16 00:22:00,27.1,23.8,29.72,WNW,301,3.0,3.0,87,0.00,,---,0.00,VWS V14.01,2013-11-16 07:22:00,
2013-11-16 00:27:00,26.8,23.5,29.72,WNW,294,7.0,10.0,87,0.00,,---,0.00,VWS V14.01,2013-11-16 07:27:00,
2013-11-16 00:32:00,26.5,23.4,29.72,NW,304,3.0,9.0,88,0.00,,---,0.00,VWS V14.01,2013-11-16 07:32:00,
2013-11-16 00:37:00,26.4,23.6,29.72,NNW,327,4.0,6.0,89,0.00,,---,0.00,VWS V14.01,2013-11-16 07:37:00,
2013-11-16 00:42:00,26.3,23.5,29.72,North,5,5.0,6.0,89,0.00,,---,0.00,VWS V14.01,2013-11-16 07:42:00,
2013-11-16 00:47:00,26.2,23.4,29.72,NNE,13,6.0,7.0,89,0.00,,---,0.00,VWS V14.01,2013-11-16 07:47:00,
2013-11-16 00:52:00,26.0,23.5,29.71,NNE,12,5.0,6.0,90,0.00,,---,0.00,VWS V14.01,2013-11-16 07:52:00,
2013-11-16 00:57:00,25.9,23.4,29.71,North,5,5.0,7.0,90,0.00,,---,0.00,VWS V14.01,2013-11-16 07:57:00,
2013-11-16 01:02:00,25.6,23.1,29.72,North,5,6.0,6.0,90,0.00,,---,0.00,VWS V14.01,2013-11-16 08:02:00,
2013-11-16 01:07:00,25.4,22.9,29.72,North,5,5.0,6.0,90,0.00,,---,0.00,VWS V14.01,2013-11-16 08:07:00,
2013-11-16 01:12:00,25.3,23.0,29.71,North,5,5.0,6.0,91,0.00,,---,0.00,VWS V14.01,2013-11-16 08:12:00,
2013-11-16 01:17:00,25.2,23.0,29.71,NNE,12,6.0,7.0,91,0.00,,---,0.00,VWS V14.01,2013-11-16 08:17:00,
2013-11-16 01:22:00,25.0,22.8,29.71,NNE,13,6.0,7.0,91,0.00,,---,0.00,VWS V14.01,2013-11-16 08:22:00,
2013-11-16 01:27:00,25.0,22.8,29.71,NNE,13,0.0,0.0,91,0.00,,---,0.00,VWS V14.01,2013-11-16 08:27:00,
2013-11-16 01:32:00,24.9,22.6,29.71,NNE,13,3.0,3.0,91,0.00,,---,0.00,VWS V14.01,2013-11-16 08:32:00,
2013-11-16 01:37:00,24.9,22.6,29.71,NNE,13,0.0,0.0,91,0.00,,---,0.00,VWS V14.01,2013-11-16 08:37:00,
2013-11-16 01:42:00,24.8,22.5,29.72,NNE,13,0.0,2.0,91,0.00,,---,0.00,VWS V14.01,2013-11-16 08:42:00,
2013-11-16 01:47:00,24.8,22.5,29.71,NNE,13,2.0,2.0,91,0.00,,---,0.00,VWS V14.01,2013-11-16 08:47:00,
2013-11-16 01:52:00,24.7,22.5,29.72,NNE,13,0.0,0.0,91,0.00,,---,0.00,VWS V14.01,2013-11-16 08:52:00,
2013-11-16 01:57:00,24.6,22.6,29.71,NNE,17,5.0,6.0,92,0.00,,---,0.00,VWS V14.01,2013-11-16 08:57:00,
2013-11-16 02:02:00,24.5,22.5,29.71,NNE,20,3.0,4.0,92,0.00,,---,0.00,VWS V14.01,2013-11-16 09:02:00,
2013-11-16 02:07:00,24.5,22.5,29.71,East,86,2.0,3.0,92,0.00,,---,0.00,VWS V14.01,2013-11-16 09:07:00,
2013-11-16 02:12:00,24.5,22.5,29.71,East,86,0.0,0.0,92,0.00,,---,0.00,VWS V14.01,2013-11-16 09:12:00,
2013-11-16 02:17:00,24.4,22.4,29.71,East,86,3.0,3.0,92,0.00,,---,0.00,VWS V14.01,2013-11-16 09:17:00,
2013-11-16 02:22:00,24.4,22.4,29.72,East,86,0.0,1.0,92,0.00,,---,0.00,VWS V14.01,2013-11-16 09:22:00,
2013-11-16 02:27:00,24.4,22.4,29.72,East,86,0.0,0.0,92,0.00,,---,0.00,VWS V14.01,2013-11-16 09:27:00,
2013-11-16 02:32:00,24.3,22.3,29.72,East,86,0.0,0.0,92,0.00,,---,0.00,VWS V14.01,2013-11-16 09:32:00,
2013-11-16 02:37:00,24.3,22.3,29.72,East,86,0.0,0.0,92,0.00,,---,0.00,VWS V14.01,2013-11-16 09:37:00,
2013-11-16 02:42:00,24.3,22.3,29.72,East,86,0.0,0.0,92,0.00,,---,0.00,VWS V14.01,2013-11-16 09:42:00,
2013-11-16 02:47:00,24.2,22.2,29.71,East,86,2.0,2.0,92,0.00,,---,0.00,VWS V14.01,2013-11-16 09:47:00,
2013-11-16 02:52:00,24.2,22.2,29.72,East,86,3.0,6.0,92,0.00,,---,0.00,VWS V14.01,2013-11-16 09:52:00,
2013-11-16 02:57:00,24.2,22.2,29.71,East,86,5.0,5.0,92,0.00,,---,0.00,VWS V14.01,2013-11-16 09:57:00,
2013-11-16 03:02:00,24.1,22.1,29.71,East,86,2.0,3.0,92,0.00,,---,0.00,VWS V14.01,2013-11-16 10:02:00,
2013-11-16 03:07:00,24.1,22.1,29.71,East,86,2.0,3.0,92,0.00,,---,0.00,VWS V14.01,2013-11-16 10:07:00,
2013-11-16 03:12:00,24.1,22.1,29.71,East,86,2.0,2.0,92,0.00,,---,0.00,VWS V14.01,2013-11-16 10:12:00,
2013-11-16 03:17:00,24.2,22.2,29.71,East,86,1.0,1.0,92,0.00,,---,0.00,VWS V14.01,2013-11-16 10:17:00,
2013-11-16 03:22:00,24.2,22.2,29.72,East,86,1.0,2.0,92,0.00,,---,0.00,VWS V14.01,2013-11-16 10:22:00,
2013-11-16 03:27:00,24.3,22.3,29.71,East,86,2.0,2.0,92,0.00,,---,0.00,VWS V14.01,2013-11-16 10:27:00,
2013-11-16 03:32:00,24.3,22.3,29.71,East,86,2.0,2.0,92,0.00,,---,0.00,VWS V14.01,2013-11-16 10:32:00,
2013-11-16 03:37:00,24.3,22.3,29.71,East,86,3.0,3.0,92,0.00,,---,0.00,VWS V14.01,2013-11-16 10:37:00,
2013-11-16 03:43:00,24.4,22.2,29.71,East,86,0.0,0.0,91,0.00,,---,0.00,VWS V14.01,2013-11-16 10:43:00,
2013-11-16 03:48:00,24.4,22.2,29.71,East,86,0.0,0.0,91,0.00,,---,0.00,VWS V14.01,2013-11-16 10:48:00,
2013-11-16 03:53:00,24.3,22.1,29.71,East,86,0.0,0.0,91,0.00,,---,0.00,VWS V14.01,2013-11-16 10:53:00,
2013-11-16 03:58:00,24.3,22.1,29.71,East,86,2.0,3.0,91,0.00,,---,0.00,VWS V14.01,2013-11-16 10:58:00,
2013-11-16 04:03:00,24.3,22.1,29.71,East,86,0.0,0.0,91,0.00,,---,0.00,VWS V14.01,2013-11-16 11:03:00,
2013-11-16 04:08:00,24.3,22.1,29.70,East,86,0.0,0.0,91,0.00,,---,0.00,VWS V14.01,2013-11-16 11:08:00,
2013-11-16 04:13:00,24.3,22.1,29.70,East,86,2.0,2.0,91,0.00,,---,0.00,VWS V14.01,2013-11-16 11:13:00,
2013-11-16 04:18:00,24.3,22.1,29.71,East,86,1.0,2.0,91,0.00,,---,0.00,VWS V14.01,2013-11-16 11:18:00,
2013-11-16 04:23:00,24.2,22.0,29.71,East,86,3.0,5.0,91,0.00,,---,0.00,VWS V14.01,2013-11-16 11:23:00,
2013-11-16 04:28:00,24.2,22.0,29.71,East,88,0.0,1.0,91,0.00,,---,0.00,VWS V14.01,2013-11-16 11:28:00,
2013-11-16 04:33:00,24.2,22.0,29.71,East,88,0.0,0.0,91,0.00,,---,0.00,VWS V14.01,2013-11-16 11:33:00,
2013-11-16 04:38:00,24.1,21.9,29.71,East,88,2.0,3.0,91,0.00,,---,0.00,VWS V14.01,2013-11-16 11:38:00,
2013-11-16 04:43:00,24.0,21.8,29.71,East,88,5.0,5.0,91,0.00,,---,0.00,VWS V14.01,2013-11-16 11:43:00,
2013-11-16 04:48:00,24.0,21.8,29.70,East,88,5.0,5.0,91,0.00,,---,0.00,VWS V14.01,2013-11-16 11:48:00,
2013-11-16 04:53:00,24.0,21.8,29.70,East,86,3.0,6.0,91,0.00,,---,0.00,VWS V14.01,2013-11-16 11:53:00,
2013-11-16 04:58:00,24.0,22.0,29.70,East,86,1.0,2.0,92,0.00,,---,0.00,VWS V14.01,2013-11-16 11:58:00,
2013-11-16 05:03:00,24.0,22.0,29.69,East,86,0.0,0.0,92,0.00,,---,0.00,VWS V14.01,2013-11-16 12:03:00,
2013-11-16 05:08:00,24.0,22.0,29.70,East,87,3.0,5.0,92,0.00,,---,0.00,VWS V14.01,2013-11-16 12:08:00,
2013-11-16 05:13:00,24.1,22.1,29.69,East,87,1.0,2.0,92,0.00,,---,0.00,VWS V14.01,2013-11-16 12:13:00,
2013-11-16 05:18:00,24.1,22.1,29.68,East,87,5.0,6.0,92,0.00,,---,0.00,VWS V14.01,2013-11-16 12:18:00,
2013-11-16 05:23:00,24.2,22.2,29.69,East,87,0.0,0.0,92,0.00,,---,0.00,VWS V14.01,2013-11-16 12:23:00,
2013-11-16 05:28:00,24.3,22.3,29.69,East,87,2.0,2.0,92,0.00,,---,0.00,VWS V14.01,2013-11-16 12:28:00,
2013-11-16 05:33:00,24.3,22.3,29.68,East,87,3.0,3.0,92,0.00,,---,0.00,VWS V14.01,2013-11-16 12:33:00,
2013-11-16 05:38:00,24.2,22.2,29.68,East,87,0.0,3.0,92,0.00,,---,0.00,VWS V14.01,2013-11-16 12:38:00,
2013-11-16 05:43:00,24.1,22.1,29.68,ESE,104,8.0,9.0,92,0.00,,---,0.00,VWS V14.01,2013-11-16 12:43:00,
2013-11-16 05:48:00,24.1,22.1,29.69,SE,130,6.0,9.0,92,0.00,,---,0.00,VWS V14.01,2013-11-16 12:48:00,
2013-11-16 05:53:00,24.2,22.5,29.68,ESE,106,4.0,7.0,93,0.00,,---,0.00,VWS V14.01,2013-11-16 12:53:00,
2013-11-16 05:58:00,24.3,22.3,29.69,SE,136,3.0,4.0,92,0.00,,---,0.00,VWS V14.01,2013-11-16 12:58:00,
2013-11-16 06:03:00,24.3,22.3,29.69,SE,136,5.0,5.0,92,0.00,,---,0.00,VWS V14.01,2013-11-16 13:03:00,
2013-11-16 06:08:00,24.3,22.3,29.68,East,94,6.0,8.0,92,0.00,,---,0.00,VWS V14.01,2013-11-16 13:08:00,
2013-11-16 06:13:00,24.4,22.4,29.69,East,89,3.0,5.0,92,0.00,,---,0.00,VWS V14.01,2013-11-16 13:13:00,
2013-11-16 06:18:00,24.4,22.4,29.69,SE,130,4.0,6.0,92,0.00,,---,0.00,VWS V14.01,2013-11-16 13:18:00,
2013-11-16 06:23:00,24.4,22.4,29.68,SE,131,4.0,5.0,92,0.00,,---,0.00,VWS V14.01,2013-11-16 13:23:00,
2013-11-16 06:28:00,24.3,22.3,29.68,SE,131,6.0,6.0,92,0.00,,---,0.00,VWS V14.01,2013-11-16 13:28:00,
2013-11-16 06:33:00,24.3,22.3,29.68,ESE,105,2.0,2.0,92,0.00,,---,0.00,VWS V14.01,2013-11-16 13:33:00,
2013-11-16 06:38:00,24.3,22.3,29.68,ESE,106,1.0,1.0,92,0.00,,---,0.00,VWS V14.01,2013-11-16 13:38:00,
2013-11-16 06:43:00,24.5,22.5,29.68,South,173,3.0,3.0,92,0.00,,---,0.00,VWS V14.01,2013-11-16 13:43:00,
2013-11-16 06:48:00,24.5,22.5,29.68,South,171,1.0,3.0,92,0.00,,---,0.00,VWS V14.01,2013-11-16 13:48:00,
2013-11-16 06:53:00,24.8,22.5,29.68,NE,53,10.0,12.0,91,0.00,,---,0.00,VWS V14.01,2013-11-16 13:53:00,
2013-11-16 06:58:00,25.2,22.7,29.68,NE,53,0.0,0.0,90,0.00,,---,0.00,VWS V14.01,2013-11-16 13:58:00,
2013-11-16 07:03:00,25.4,22.9,29.68,SSE,159,6.0,6.0,90,0.00,,---,0.00,VWS V14.01,2013-11-16 14:03:00,
2013-11-16 07:08:00,25.4,22.9,29.68,SSE,159,1.0,2.0,90,0.00,,---,0.00,VWS V14.01,2013-11-16 14:08:00,
2013-11-16 07:13:00,25.3,22.8,29.69,SW,223,0.0,0.0,90,0.00,,---,0.00,VWS V14.01,2013-11-16 14:13:00,
2013-11-16 07:18:00,25.3,22.8,29.69,North,11,4.0,5.0,90,0.00,,---,0.00,VWS V14.01,2013-11-16 14:18:00,
2013-11-16 07:23:00,25.5,23.0,29.69,NNE,24,2.0,3.0,90,0.00,,---,0.00,VWS V14.01,2013-11-16 14:23:00,
2013-11-16 07:28:00,25.8,23.3,29.70,NE,56,5.0,5.0,90,0.00,,---,0.00,VWS V14.01,2013-11-16 14:28:00,
2013-11-16 07:33:00,26.2,23.4,29.69,NNE,32,3.0,6.0,89,0.00,,---,0.00,VWS V14.01,2013-11-16 14:33:00,
2013-11-16 07:38:00,26.5,23.7,29.69,NE,44,8.0,8.0,89,0.00,,---,0.00,VWS V14.01,2013-11-16 14:38:00,
2013-11-16 07:44:00,26.7,23.6,29.69,NE,51,1.0,2.0,88,0.00,,---,0.00,VWS V14.01,2013-11-16 14:44:00,
2013-11-16 07:49:00,26.8,23.5,29.69,East,86,2.0,2.0,87,0.00,,---,0.00,VWS V14.01,2013-11-16 14:49:00,
2013-11-16 07:54:00,26.8,23.2,29.70,SE,146,7.0,7.0,86,0.00,,---,0.00,VWS V14.01,2013-11-16 14:54:00,
2013-11-16 07:59:00,26.9,23.3,29.70,SE,146,1.0,2.0,86,0.00,,---,0.00,VWS V14.01,2013-11-16 14:59:00,
2013-11-16 08:04:00,26.9,23.3,29.71,SE,140,4.0,8.0,86,0.00,,---,0.00,VWS V14.01,2013-11-16 15:04:00,
2013-11-16 08:09:00,27.0,23.4,29.70,NE,55,6.0,8.0,86,0.00,,---,0.00,VWS V14.01,2013-11-16 15:09:00,
2013-11-16 08:14:00,27.0,23.4,29.71,ESE,107,4.0,7.0,86,0.00,,---,0.00,VWS V14.01,2013-11-16 15:14:00,
2013-11-16 08:19:00,27.0,23.4,29.71,ESE,111,4.0,7.0,86,0.00,,---,0.00,VWS V14.01,2013-11-16 15:19:00,
2013-11-16 08:24:00,27.2,23.6,29.72,ESE,107,0.0,1.0,86,0.00,,---,0.00,VWS V14.01,2013-11-16 15:24:00,
2013-11-16 08:29:00,27.3,23.1,29.72,South,169,5.0,8.0,84,0.00,,---,0.00,VWS V14.01,2013-11-16 15:29:00,
2013-11-16 08:34:00,27.6,23.1,29.71,South,175,3.0,5.0,83,0.00,,---,0.00,VWS V14.01,2013-11-16 15:34:00,
2013-11-16 08:39:00,28.0,23.5,29.71,SE,146,4.0,7.0,83,0.00,,---,0.00,VWS V14.01,2013-11-16 15:39:00,
2013-11-16 08:44:00,28.3,24.1,29.71,SSE,167,10.0,14.0,84,0.00,,---,0.00,VWS V14.01,2013-11-16 15:44:00,
2013-11-16 08:49:00,28.4,23.6,29.72,South,172,4.0,6.0,82,0.00,,---,0.00,VWS V14.01,2013-11-16 15:49:00,
2013-11-16 08:54:00,28.7,23.6,29.71,South,186,16.0,16.0,81,0.00,,---,0.00,VWS V14.01,2013-11-16 15:54:00,
2013-11-16 08:59:00,28.7,24.2,29.71,South,175,12.0,12.0,83,0.00,,---,0.00,VWS V14.01,2013-11-16 15:59:00,
2013-11-16 09:04:00,29.0,24.2,29.71,SE,140,5.0,8.0,82,0.00,,---,0.00,VWS V14.01,2013-11-16 16:04:00,
2013-11-16 09:09:00,29.3,23.9,29.71,South,173,8.0,12.0,80,0.00,,---,0.00,VWS V14.01,2013-11-16 16:09:00,
2013-11-16 09:14:00,29.6,23.9,29.71,SSE,157,5.0,6.0,79,0.00,,---,0.00,VWS V14.01,2013-11-16 16:14:00,
2013-11-16 09:19:00,29.8,23.2,29.71,SE,129,3.0,5.0,76,0.00,,---,0.00,VWS V14.01,2013-11-16 16:19:00,
2013-11-16 09:24:00,29.9,22.3,29.71,ESE,113,4.0,11.0,73,0.00,,---,0.00,VWS V14.01,2013-11-16 16:24:00,
2013-11-16 09:29:00,30.2,21.9,29.70,East,88,0.0,3.0,71,0.00,,---,0.00,VWS V14.01,2013-11-16 16:29:00,
2013-11-16 09:34:00,30.0,22.7,29.71,SW,227,2.0,3.0,74,0.00,,---,0.00,VWS V14.01,2013-11-16 16:34:00,
2013-11-16 09:39:00,30.1,22.8,29.71,WSW,251,4.0,5.0,74,0.00,,---,0.00,VWS V14.01,2013-11-16 16:39:00,
2013-11-16 09:44:00,30.5,22.9,29.71,South,173,6.0,11.0,73,0.00,,---,0.00,VWS V14.01,2013-11-16 16:44:00,
2013-11-16 09:49:00,30.6,22.0,29.71,SSW,202,3.0,4.0,70,0.00,,---,0.00,VWS V14.01,2013-11-16 16:49:00,
2013-11-16 09:54:00,30.9,21.6,29.71,WSW,240,4.0,8.0,68,0.00,,---,0.00,VWS V14.01,2013-11-16 16:54:00,
2013-11-16 09:59:00,30.8,21.1,29.71,WSW,252,5.0,5.0,67,0.00,,---,0.00,VWS V14.01,2013-11-16 16:59:00,
2013-11-16 10:04:00,30.8,21.5,29.71,West,281,0.0,0.0,68,0.00,,---,0.00,VWS V14.01,2013-11-16 17:04:00,
2013-11-16 10:09:00,31.0,23.0,29.71,WSW,248,6.0,6.0,72,0.00,,---,0.00,VWS V14.01,2013-11-16 17:09:00,
2013-11-16 10:14:00,31.0,21.3,29.71,West,259,17.0,17.0,67,0.00,,---,0.00,VWS V14.01,2013-11-16 17:14:00,
2013-11-16 10:19:00,30.8,21.1,29.71,West,275,10.0,14.0,67,0.00,,---,0.00,VWS V14.01,2013-11-16 17:19:00,
2013-11-16 10:24:00,30.7,21.4,29.71,SSW,202,10.0,10.0,68,0.00,,---,0.00,VWS V14.01,2013-11-16 17:24:00,
2013-11-16 10:29:00,30.8,21.5,29.71,SW,225,5.0,9.0,68,0.00,,---,0.00,VWS V14.01,2013-11-16 17:29:00,
2013-11-16 10:34:00,30.9,21.2,29.71,ENE,69,3.0,3.0,67,0.00,,---,0.00,VWS V14.01,2013-11-16 17:34:00,
2013-11-16 10:39:00,31.0,21.7,29.70,SSE,159,12.0,14.0,68,0.00,,---,0.00,VWS V14.01,2013-11-16 17:39:00,
2013-11-16 10:44:00,31.1,22.5,29.70,SSE,157,7.0,9.0,70,0.00,,---,0.00,VWS V14.01,2013-11-16 17:44:00,
2013-11-16 10:49:00,31.1,22.8,29.70,South,176,7.0,7.0,71,0.00,,---,0.00,VWS V14.01,2013-11-16 17:49:00,
2013-11-16 10:54:00,31.1,23.1,29.70,SSW,205,0.0,0.0,72,0.00,,---,0.00,VWS V14.01,2013-11-16 17:54:00,
2013-11-16 11:00:00,30.9,23.0,29.70,SW,233,3.0,5.0,72,0.00,,---,0.00,VWS V14.01,2013-11-16 18:00:00,
2013-11-16 11:05:00,30.7,23.1,29.69,SW,225,4.0,4.0,73,0.00,,---,0.00,VWS V14.01,2013-11-16 18:05:00,
2013-11-16 11:10:00,30.3,23.0,29.69,SSW,198,5.0,5.0,74,0.00,,---,0.00,VWS V14.01,2013-11-16 18:10:00,
2013-11-16 11:15:00,30.1,23.5,29.68,SW,227,4.0,4.0,76,0.00,,---,0.00,VWS V14.01,2013-11-16 18:15:00,
2013-11-16 11:20:00,29.8,23.8,29.68,West,279,6.0,6.0,78,0.00,,---,0.00,VWS V14.01,2013-11-16 18:20:00,
2013-11-16 11:25:00,29.7,24.0,29.67,West,279,0.0,3.0,79,0.00,,---,0.00,VWS V14.01,2013-11-16 18:25:00,
2013-11-16 11:30:00,29.6,24.2,29.67,West,279,5.0,5.0,80,0.00,,---,0.00,VWS V14.01,2013-11-16 18:30:00,
2013-11-16 11:35:00,29.0,24.2,29.67,ENE,69,5.0,5.0,82,0.00,,---,0.00,VWS V14.01,2013-11-16 18:35:00,
2013-11-16 11:40:00,28.5,24.3,29.66,East,82,6.0,8.0,84,0.00,,---,0.00,VWS V14.01,2013-11-16 18:40:00,
2013-11-16 11:45:00,28.3,24.4,29.66,East,79,3.0,3.0,85,0.00,,---,0.00,VWS V14.01,2013-11-16 18:45:00,
2013-11-16 11:50:00,28.1,24.5,29.66,ENE,63,3.0,4.0,86,0.00,,---,0.00,VWS V14.01,2013-11-16 18:50:00,
2013-11-16 11:55:00,27.9,24.5,29.65,ENE,63,3.0,5.0,87,0.00,,---,0.00,VWS V14.01,2013-11-16 18:55:00,
2013-11-16 12:00:00,27.9,24.5,29.65,ENE,61,0.0,0.0,87,0.00,,---,0.00,VWS V14.01,2013-11-16 19:00:00,
2013-11-16 12:05:00,28.0,24.9,29.65,ENE,65,3.0,4.0,88,0.00,,---,0.00,VWS V14.01,2013-11-16 19:05:00,
2013-11-16 12:10:00,28.0,24.9,29.64,ENE,60,3.0,4.0,88,0.00,,---,0.00,VWS V14.01,2013-11-16 19:10:00,
2013-11-16 12:15:00,28.0,24.9,29.63,South,171,5.0,5.0,88,0.00,,---,0.00,VWS V14.01,2013-11-16 19:15:00,
2013-11-16 12:20:00,28.0,24.9,29.63,South,176,0.0,0.0,88,0.00,,---,0.00,VWS V14.01,2013-11-16 19:20:00,
2013-11-16 12:25:00,28.2,25.1,29.62,South,173,3.0,4.0,88,0.00,,---,0.00,VWS V14.01,2013-11-16 19:25:00,
2013-11-16 12:30:00,28.4,25.6,29.62,East,101,3.0,3.0,89,0.00,,---,0.00,VWS V14.01,2013-11-16 19:30:00,
2013-11-16 12:35:00,28.4,25.3,29.62,ESE,103,3.0,4.0,88,0.00,,---,0.00,VWS V14.01,2013-11-16 19:35:00,
2013-11-16 12:40:00,28.1,25.3,29.61,ESE,103,2.0,2.0,89,0.00,,---,0.00,VWS V14.01,2013-11-16 19:40:00,
2013-11-16 12:45:00,28.0,25.2,29.61,ESE,103,1.0,3.0,89,0.00,,---,0.00,VWS V14.01,2013-11-16 19:45:00,
2013-11-16 12:50:00,28.0,25.2,29.61,SE,141,2.0,2.0,89,0.00,,---,0.00,VWS V14.01,2013-11-16 19:50:00,
2013-11-16 12:55:00,27.8,25.0,29.61,SSE,153,0.0,0.0,89,0.00,,---,0.00,VWS V14.01,2013-11-16 19:55:00,
2013-11-16 13:00:00,27.8,25.2,29.61,East,81,5.0,6.0,90,0.00,,---,0.00,VWS V14.01,2013-11-16 20:00:00,
2013-11-16 13:05:00,27.9,25.4,29.61,SE,124,1.0,2.0,90,0.00,,---,0.00,VWS V14.01,2013-11-16 20:05:00,
2013-11-16 13:10:00,28.0,25.7,29.61,SE,128,3.0,3.0,91,0.00,,---,0.00,VWS V14.01,2013-11-16 20:10:00,
2013-11-16 13:15:00,28.0,25.7,29.61,ENE,69,10.0,10.0,91,0.00,,---,0.00,VWS V14.01,2013-11-16 20:15:00,
2013-11-16 13:20:00,28.0,25.7,29.61,East,100,6.0,6.0,91,0.00,,---,0.00,VWS V14.01,2013-11-16 20:20:00,
2013-11-16 13:25:00,28.1,25.8,29.60,ENE,63,8.0,10.0,91,0.00,,---,0.00,VWS V14.01,2013-11-16 20:25:00,
2013-11-16 13:30:00,27.9,25.6,29.60,ENE,71,7.0,8.0,91,0.00,,---,0.00,VWS V14.01,2013-11-16 20:30:00,
2013-11-16 13:35:00,28.1,25.8,29.60,East,90,5.0,5.0,91,0.00,,---,0.00,VWS V14.01,2013-11-16 20:35:00,
2013-11-16 13:40:00,28.4,25.9,29.60,ESE,119,0.0,0.0,90,0.00,,---,0.00,VWS V14.01,2013-11-16 20:40:00,
2013-11-16 13:45:00,28.3,26.0,29.61,SSW,200,0.0,0.0,91,0.00,,---,0.00,VWS V14.01,2013-11-16 20:45:00,
2013-11-16 13:50:00,28.2,25.9,29.61,SE,131,4.0,4.0,91,0.00,,---,0.00,VWS V14.01,2013-11-16 20:50:00,
2013-11-16 13:55:00,28.4,26.4,29.60,NE,42,1.0,5.0,92,0.00,,---,0.00,VWS V14.01,2013-11-16 20:55:00,
2013-11-16 14:01:00,28.6,26.3,29.60,East,93,3.0,6.0,91,0.00,,---,0.00,VWS V14.01,2013-11-16 21:01:00,
2013-11-16 14:06:00,28.4,26.1,29.60,South,187,15.0,15.0,91,0.00,,---,0.00,VWS V14.01,2013-11-16 21:06:00,
2013-11-16 14:11:00,27.9,25.6,29.60,SW,222,3.0,5.0,91,0.00,,---,0.00,VWS V14.01,2013-11-16 21:11:00,
2013-11-16 14:16:00,27.9,25.9,29.60,NW,324,2.0,2.0,92,0.00,,---,0.00,VWS V14.01,2013-11-16 21:16:00,
2013-11-16 14:21:00,27.9,25.9,29.60,SW,232,0.0,0.0,92,0.00,,---,0.00,VWS V14.01,2013-11-16 21:21:00,
2013-11-16 14:26:00,27.8,25.8,29.61,WSW,238,0.0,0.0,92,0.00,,---,0.00,VWS V14.01,2013-11-16 21:26:00,
2013-11-16 14:31:00,27.9,25.9,29.60,East,92,2.0,4.0,92,0.00,,---,0.00,VWS V14.01,2013-11-16 21:31:00,
2013-11-16 14:36:00,27.8,25.8,29.60,WSW,250,0.0,5.0,92,0.00,,---,0.00,VWS V14.01,2013-11-16 21:36:00,
2013-11-16 14:41:00,27.8,25.8,29.60,WSW,250,1.0,1.0,92,0.00,,---,0.00,VWS V14.01,2013-11-16 21:41:00,
2013-11-16 14:46:00,27.8,26.0,29.61,WNW,290,0.0,2.0,93,0.00,,---,0.00,VWS V14.01,2013-11-16 21:46:00,
2013-11-16 14:51:00,27.9,26.1,29.61,East,82,5.0,5.0,93,0.00,,---,0.00,VWS V14.01,2013-11-16 21:51:00,
2013-11-16 14:56:00,27.9,25.9,29.61,SSW,200,0.0,4.0,92,0.00,,---,0.00,VWS V14.01,2013-11-16 21:56:00,
2013-11-16 15:01:00,27.9,25.9,29.61,ENE,57,5.0,7.0,92,0.00,,---,0.00,VWS V14.01,2013-11-16 22:01:00,
2013-11-16 15:06:00,27.9,25.9,29.61,NE,46,3.0,4.0,92,0.00,,---,0.00,VWS V14.01,2013-11-16 22:06:00,
2013-11-16 15:11:00,27.9,25.9,29.61,NE,46,0.0,0.0,92,0.00,,---,0.00,VWS V14.01,2013-11-16 22:11:00,
2013-11-16 15:16:00,27.8,25.8,29.61,West,277,0.0,0.0,92,0.00,,---,0.00,VWS V14.01,2013-11-16 22:16:00,
2013-11-16 15:21:00,27.8,25.8,29.60,SE,136,2.0,2.0,92,0.00,,---,0.00,VWS V14.01,2013-11-16 22:21:00,
2013-11-16 15:26:00,27.8,25.8,29.60,NE,42,3.0,4.0,92,0.00,,---,0.00,VWS V14.01,2013-11-16 22:26:00,
2013-11-16 15:31:00,27.7,25.7,29.60,NE,39,1.0,1.0,92,0.00,,---,0.00,VWS V14.01,2013-11-16 22:31:00,
2013-11-16 15:36:00,27.6,25.6,29.60,NE,38,2.0,3.0,92,0.00,,---,0.00,VWS V14.01,2013-11-16 22:36:00,
2013-11-16 15:41:00,27.6,25.6,29.60,NE,38,0.0,0.0,92,0.00,,---,0.00,VWS V14.01,2013-11-16 22:41:00,
2013-11-16 15:46:00,27.5,25.5,29.61,SE,135,2.0,2.0,92,0.00,,---,0.00,VWS V14.01,2013-11-16 22:46:00,
2013-11-16 15:51:00,27.5,25.5,29.60,SE,136,0.0,3.0,92,0.00,,---,0.00,VWS V14.01,2013-11-16 22:51:00,
2013-11-16 15:56:00,27.4,25.4,29.60,SE,136,0.0,0.0,92,0.00,,---,0.00,VWS V14.01,2013-11-16 22:56:00,
2013-11-16 16:01:00,27.3,25.5,29.60,SE,136,0.0,1.0,93,0.00,,---,0.00,VWS V14.01,2013-11-16 23:01:00,
2013-11-16 16:06:00,27.2,25.5,29.60,WSW,247,0.0,5.0,93,0.00,,---,0.00,VWS V14.01,2013-11-16 23:06:00,
2013-11-16 16:11:00,27.2,25.5,29.60,ESE,121,5.0,6.0,93,0.00,,---,0.00,VWS V14.01,2013-11-16 23:11:00,
2013-11-16 16:16:00,27.1,25.4,29.59,East,89,0.0,2.0,93,0.00,,---,0.00,VWS V14.01,2013-11-16 23:16:00,
2013-11-16 16:21:00,27.2,25.5,29.59,ESE,109,4.0,4.0,93,0.00,,---,0.00,VWS V14.01,2013-11-16 23:21:00,
2013-11-16 16:26:00,27.2,25.5,29.59,ENE,70,1.0,2.0,93,0.00,,---,0.00,VWS V14.01,2013-11-16 23:26:00,
2013-11-16 16:31:00,27.1,25.6,29.59,East,88,2.0,5.0,94,0.00,,---,0.00,VWS V14.01,2013-11-16 23:31:00,
2013-11-16 16:36:00,27.2,25.7,29.59,SE,125,3.0,4.0,94,0.00,,---,0.00,VWS V14.01,2013-11-16 23:36:00,
2013-11-16 16:41:00,27.1,25.4,29.59,SE,144,7.0,10.0,93,0.00,,---,0.00,VWS V14.01,2013-11-16 23:41:00,
2013-11-16 16:46:00,27.1,25.6,29.59,SE,127,2.0,2.0,94,0.00,,---,0.00,VWS V14.01,2013-11-16 23:46:00,
2013-11-16 16:51:00,27.2,25.7,29.60,SE,126,2.0,2.0,94,0.00,,---,0.00,VWS V14.01,2013-11-16 23:51:00,
2013-11-16 16:56:00,27.2,25.7,29.59,NE,38,1.0,1.0,94,0.00,,---,0.00,VWS V14.01,2013-11-16 23:56:00,
2013-11-16 17:01:00,27.2,25.7,29.59,SE,132,2.0,2.0,94,0.00,,---,0.00,VWS V14.01,2013-11-17 00:01:00,
2013-11-16 17:06:00,27.2,25.7,29.60,SE,146,5.0,5.0,94,0.00,,---,0.00,VWS V14.01,2013-11-17 00:06:00,
2013-11-16 17:11:00,27.3,25.8,29.60,SW,215,10.0,11.0,94,0.00,,---,0.00,VWS V14.01,2013-11-17 00:11:00,
2013-11-16 17:16:00,27.3,25.8,29.60,SSW,207,7.0,7.0,94,0.00,,---,0.00,VWS V14.01,2013-11-17 00:16:00,
2013-11-16 17:21:00,27.3,25.8,29.59,SSW,192,0.0,0.0,94,0.00,,---,0.00,VWS V14.01,2013-11-17 00:21:00,
2013-11-16 17:26:00,27.4,25.9,29.59,ESE,103,3.0,6.0,94,0.00,,---,0.00,VWS V14.01,2013-11-17 00:26:00,
2013-11-16 17:31:00,27.4,25.9,29.61,WNW,292,15.0,17.0,94,0.00,,---,0.00,VWS V14.01,2013-11-17 00:31:00,
2013-11-16 17:36:00,27.5,26.0,29.61,SW,235,5.0,8.0,94,0.00,,---,0.00,VWS V14.01,2013-11-17 00:36:00,
2013-11-16 17:41:00,27.6,26.1,29.61,SSW,203,2.0,9.0,94,0.00,,---,0.00,VWS V14.01,2013-11-17 00:41:00,
2013-11-16 17:46:00,27.7,26.2,29.61,SW,215,10.0,10.0,94,0.00,,---,0.00,VWS V14.01,2013-11-17 00:46:00,
2013-11-16 17:51:00,27.7,26.2,29.60,SE,128,3.0,3.0,94,0.00,,---,0.00,VWS V14.01,2013-11-17 00:51:00,
2013-11-16 17:57:00,27.7,26.2,29.60,SSW,192,5.0,5.0,94,0.00,,---,0.00,VWS V14.01,2013-11-17 00:57:00,
2013-11-16 18:02:00,27.7,26.2,29.60,South,182,2.0,3.0,94,0.00,,---,0.00,VWS V14.01,2013-11-17 01:02:00,
2013-11-16 18:07:00,27.6,26.1,29.59,East,90,1.0,3.0,94,0.00,,---,0.00,VWS V14.01,2013-11-17 01:07:00,
2013-11-16 18:12:00,27.6,26.1,29.59,East,86,5.0,5.0,94,0.00,,---,0.00,VWS V14.01,2013-11-17 01:12:00,
2013-11-16 18:17:00,27.6,26.1,29.59,East,83,5.0,6.0,94,0.00,,---,0.00,VWS V14.01,2013-11-17 01:17:00,
2013-11-16 18:22:00,27.5,26.0,29.59,ESE,123,4.0,5.0,94,0.00,,---,0.00,VWS V14.01,2013-11-17 01:22:00,
2013-11-16 18:27:00,27.5,26.0,29.60,SE,140,6.0,7.0,94,0.00,,---,0.00,VWS V14.01,2013-11-17 01:27:00,
2013-11-16 18:32:00,27.5,26.0,29.60,SE,137,0.0,1.0,94,0.00,,---,0.00,VWS V14.01,2013-11-17 01:32:00,
2013-11-16 18:37:00,27.5,26.0,29.60,SSW,193,0.0,2.0,94,0.00,,---,0.00,VWS V14.01,2013-11-17 01:37:00,
2013-11-16 18:42:00,27.5,26.0,29.60,NE,53,7.0,8.0,94,0.00,,---,0.00,VWS V14.01,2013-11-17 01:42:00,
2013-11-16 18:47:00,27.6,26.1,29.61,SSW,200,0.0,3.0,94,0.00,,---,0.00,VWS V14.01,2013-11-17 01:47:00,
2013-11-16 18:52:00,27.7,26.2,29.61,WNW,290,5.0,9.0,94,0.00,,---,0.00,VWS V14.01,2013-11-17 01:52:00,
2013-11-16 18:57:00,27.8,26.3,29.61,WSW,250,16.0,24.0,94,0.00,,---,0.00,VWS V14.01,2013-11-17 01:57:00,
2013-11-16 19:02:00,27.8,26.6,29.61,WNW,290,12.0,17.0,95,0.00,,---,0.00,VWS V14.01,2013-11-17 02:02:00,
2013-11-16 19:07:00,27.7,26.2,29.61,WNW,290,9.0,11.0,94,0.00,,---,0.00,VWS V14.01,2013-11-17 02:07:00,
2013-11-16 19:12:00,27.6,26.1,29.61,West,281,6.0,9.0,94,0.00,,---,0.00,VWS V14.01,2013-11-17 02:12:00,
2013-11-16 19:17:00,27.5,26.3,29.62,NW,311,11.0,13.0,95,0.00,,---,0.00,VWS V14.01,2013-11-17 02:17:00,
2013-11-16 19:22:00,27.4,26.2,29.62,NW,326,12.0,13.0,95,0.00,,---,0.00,VWS V14.01,2013-11-17 02:22:00,
2013-11-16 19:27:00,27.2,25.7,29.64,North,5,9.0,14.0,94,0.00,,---,0.00,VWS V14.01,2013-11-17 02:27:00,
2013-11-16 19:32:00,27.1,25.6,29.64,NW,323,13.0,15.0,94,0.00,,---,0.00,VWS V14.01,2013-11-17 02:32:00,
2013-11-16 19:37:00,27.1,25.6,29.63,North,5,9.0,18.0,94,0.00,,---,0.00,VWS V14.01,2013-11-17 02:37:00,
2013-11-16 19:42:00,27.0,25.5,29.64,West,274,7.0,12.0,94,0.00,,---,0.00,VWS V14.01,2013-11-17 02:42:00,
2013-11-16 19:47:00,27.0,25.8,29.64,West,281,5.0,9.0,95,0.00,,---,0.00,VWS V14.01,2013-11-17 02:47:00,
2013-11-16 19:52:00,26.9,25.7,29.65,NW,321,4.0,6.0,95,0.00,,---,0.00,VWS V14.01,2013-11-17 02:52:00,
2013-11-16 19:57:00,26.9,25.7,29.66,NW,311,4.0,7.0,95,0.00,,---,0.00,VWS V14.01,2013-11-17 02:57:00,
2013-11-16 20:02:00,26.8,25.6,29.66,WNW,300,14.0,14.0,95,0.00,,---,0.00,VWS V14.01,2013-11-17 03:02:00,
2013-11-16 20:07:00,26.7,25.5,29.67,West,271,21.0,23.0,95,0.00,,---,0.00,VWS V14.01,2013-11-17 03:07:00,
2013-11-16 20:12:00,26.8,25.3,29.66,West,262,25.0,28.0,94,0.00,,---,0.00,VWS V14.01,2013-11-17 03:12:00,
2013-11-16 20:17:00,27.0,25.2,29.66,WNW,292,9.0,10.0,93,0.00,,---,0.00,VWS V14.01,2013-11-17 03:17:00,
2013-11-16 20:22:00,27.0,25.2,29.65,WNW,292,17.0,18.0,93,0.00,,---,0.00,VWS V14.01,2013-11-17 03:22:00,
2013-11-16 20:27:00,26.8,25.0,29.67,NW,315,11.0,18.0,93,0.00,,---,0.00,VWS V14.01,2013-11-17 03:27:00,
2013-11-16 20:32:00,26.8,25.0,29.65,West,279,22.0,47.0,93,0.00,,---,0.00,VWS V14.01,2013-11-17 03:32:00,
2013-11-16 20:37:00,27.0,25.0,29.68,WNW,303,16.0,16.0,92,0.00,,---,0.00,VWS V14.01,2013-11-17 03:37:00,
2013-11-16 20:42:00,27.1,24.8,29.67,NW,304,12.0,12.0,91,0.00,,---,0.00,VWS V14.01,2013-11-17 03:42:00,
2013-11-16 20:47:00,26.9,24.9,29.67,WNW,285,26.0,26.0,92,0.00,,---,0.00,VWS V14.01,2013-11-17 03:47:00,
2013-11-16 20:52:00,27.1,24.8,29.68,West,262,10.0,10.0,91,0.00,,---,0.00,VWS V14.01,2013-11-17 03:52:00,
2013-11-16 20:57:00,27.3,24.8,29.69,WNW,295,11.0,15.0,90,0.00,,---,0.00,VWS V14.01,2013-11-17 03:57:00,
2013-11-16 21:02:00,27.0,24.7,29.68,NW,318,16.0,16.0,91,0.00,,---,0.00,VWS V14.01,2013-11-17 04:02:00,
2013-11-16 21:07:00,27.2,24.9,29.68,West,266,16.0,16.0,91,0.00,,---,0.00,VWS V14.01,2013-11-17 04:07:00,
2013-11-16 21:12:00,27.5,24.7,29.68,WNW,291,12.0,14.0,89,0.00,,---,0.00,VWS V14.01,2013-11-17 04:12:00,
2013-11-16 21:17:00,27.6,24.8,29.67,NNW,328,16.0,16.0,89,0.00,,---,0.00,VWS V14.01,2013-11-17 04:17:00,
2013-11-16 21:22:00,27.6,24.8,29.70,West,260,21.0,21.0,89,0.00,,---,0.00,VWS V14.01,2013-11-17 04:22:00,
2013-11-16 21:27:00,27.4,24.6,29.70,WSW,255,14.0,14.0,89,0.00,,---,0.00,VWS V14.01,2013-11-17 04:27:00,
2013-11-16 21:32:00,27.2,24.4,29.70,WNW,288,7.0,8.0,89,0.00,,---,0.00,VWS V14.01,2013-11-17 04:32:00,
2013-11-16 21:37:00,27.0,24.5,29.70,West,260,5.0,6.0,90,0.00,,---,0.00,VWS V14.01,2013-11-17 04:37:00,
2013-11-16 21:43:00,27.4,24.0,29.71,WNW,294,14.0,14.0,87,0.00,,---,0.00,VWS V14.01,2013-11-17 04:43:00,
2013-11-16 21:48:00,27.7,24.6,29.71,WSW,239,35.0,35.0,88,0.00,,---,0.00,VWS V14.01,2013-11-17 04:48:00,
2013-11-16 21:53:00,27.3,24.5,29.70,West,278,31.0,43.0,89,0.00,,---,0.00,VWS V14.01,2013-11-17 04:53:00,
2013-11-16 21:58:00,27.4,24.0,29.71,WSW,252,29.0,39.0,87,0.23,,---,0.23,VWS V14.01,2013-11-17 04:58:00,
2013-11-16 22:01:00,27.3,24.0,29.71,West,277,24.0,31.0,87,0.67,,---,0.67,VWS V14.01,2013-11-17 05:01:00,
2013-11-16 22:06:00,27.4,23.5,29.69,WSW,255,47.0,48.0,85,0.84,,---,0.84,VWS V14.01,2013-11-17 05:06:00,
2013-11-16 22:11:00,27.2,23.9,29.70,NW,321,11.0,11.0,87,0.89,,---,0.89,VWS V14.01,2013-11-17 05:11:00,
2013-11-16 22:16:00,27.0,23.9,29.71,WNW,285,16.0,23.0,88,0.99,,---,0.99,VWS V14.01,2013-11-17 05:16:00,
2013-11-16 22:21:00,27.0,23.9,29.72,West,277,6.0,9.0,88,1.00,,---,1.00,VWS V14.01,2013-11-17 05:21:00,
2013-11-16 22:26:00,26.7,24.2,29.73,WNW,287,9.0,10.0,90,1.00,,---,1.00,VWS V14.01,2013-11-17 05:26:00,
2013-11-16 22:31:00,26.3,23.8,29.73,SW,215,23.0,32.0,90,1.00,,---,1.00,VWS V14.01,2013-11-17 05:31:00,
2013-11-16 22:36:00,26.7,23.4,29.71,WSW,250,26.0,27.0,87,1.01,,---,1.01,VWS V14.01,2013-11-17 05:36:00,
2013-11-16 22:42:00,26.9,23.6,29.72,NW,312,9.0,9.0,87,1.03,,---,1.03,VWS V14.01,2013-11-17 05:42:00,
2013-11-16 22:47:00,26.7,23.6,29.71,West,271,12.0,17.0,88,1.03,,---,1.03,VWS V14.01,2013-11-17 05:47:00,
2013-11-16 22:52:00,26.5,23.7,29.72,WNW,297,11.0,12.0,89,1.05,,---,1.05,VWS V14.01,2013-11-17 05:52:00,
2013-11-16 22:57:00,26.3,23.5,29.72,West,272,15.0,18.0,89,0.94,,---,1.05,VWS V14.01,2013-11-17 05:57:00,
2013-11-16 23:02:00,26.2,23.7,29.72,North,5,12.0,12.0,90,0.42,,---,1.09,VWS V14.01,2013-11-17 06:02:00,
2013-11-16 23:07:00,25.7,23.4,29.73,NW,316,12.0,15.0,91,0.25,,---,1.09,VWS V14.01,2013-11-17 06:07:00,
2013-11-16 23:12:00,25.4,23.4,29.72,NW,321,9.0,10.0,92,0.20,,---,1.09,VWS V14.01,2013-11-17 06:12:00,
2013-11-16 23:17:00,25.4,23.7,29.72,NW,308,10.0,13.0,93,0.12,,---,1.10,VWS V14.01,2013-11-17 06:17:00,
2013-11-16 23:22:00,25.5,23.5,29.72,WSW,252,14.0,17.0,92,0.11,,---,1.11,VWS V14.01,2013-11-17 06:22:00,
2013-11-16 23:27:00,25.8,23.8,29.72,NW,322,13.0,16.0,92,0.23,,---,1.23,VWS V14.01,2013-11-17 06:27:00,
2013-11-16 23:32:00,25.7,24.0,29.73,NW,315,6.0,6.0,93,0.23,,---,1.23,VWS V14.01,2013-11-17 06:32:00,
2013-11-16 23:37:00,25.8,23.5,29.72,West,259,17.0,18.0,91,0.24,,---,1.25,VWS V14.01,2013-11-17 06:37:00,
2013-11-16 23:42:00,26.3,24.0,29.73,NNW,348,20.0,20.0,91,0.24,,---,1.27,VWS V14.01,2013-11-17 06:42:00,
2013-11-16 23:47:00,26.0,23.7,29.73,NW,312,11.0,21.0,91,0.24,,---,1.27,VWS V14.01,2013-11-17 06:47:00,
2013-11-16 23:52:00,26.0,23.7,29.73,West,278,16.0,20.0,91,0.22,,---,1.27,VWS V14.01,2013-11-17 06:52:00,
2013-11-16 23:57:00,26.0,23.7,29.73,NNW,348,4.0,4.0,91,0.22,,---,1.27,VWS V14.01,2013-11-17 06:57:00,